Latest Coastal Weather Observations for Wynyard

IDV60701

Issued at 2:51 pm EDT Sunday 20 October 2019 (issued every 10 minutes, with the page automatically refreshed every 10 minutes)

About coastal observations | Map of coastal stations | Coastal observations for VIC | Marine services | Other Formats
Station Details ID: 091107 Name: WYNYARD AIRPORT Lat: -41.00 Lon: 145.73 Height: 12.0 m
Data from the previous 72 hours. | See also: Recent months at Wynyard
Date/Time
EDT
Wind Sea
Height
m
Swell Vis
km
Cloud Weather Temp
°C
Press
hPa
Rain since
9am
mm
Dir  Spd
kts
Gust
kts
Height
m
Period
s
Dir
20/02:37pm W 17 27 - - - - 10 Partly cloudy - 14.4 1018.9 0.0
20/02:30pm W 19 28 - - - - 10 Partly cloudy - 15.2 1018.9 0.0
20/02:00pm W 20 30 - - - - 10 Partly cloudy - 13.9 1018.8 0.0
20/01:56pm W 20 30 - - - - 10 Partly cloudy - 13.7 1018.6 0.0
20/01:30pm W 18 24 - - - - 10 Partly cloudy - 13.9 1018.4 0.0
20/01:07pm W 15 21 - - - - 6 Partly cloudy - 13.0 1018.4 0.0
20/01:00pm W 15 20 - - - - 6 Partly cloudy - 13.1 1018.4 0.0
20/12:45pm W 16 20 - - - - 5 Partly cloudy - 12.4 1018.4 0.0
20/12:40pm W 17 25 - - - - 6 Partly cloudy - 12.2 1018.5 0.0
20/12:30pm W 16 22 - - - - 5 Partly cloudy - 11.6 1018.4 0.0
20/12:21pm W 16 20 - - - - 5 Partly cloudy - 11.9 1018.4 0.0
20/12:18pm W 16 22 - - - - 7 Partly cloudy - 11.7 1018.4 0.0
20/12:00pm W 15 21 - - - - 5 Cloudy - 11.6 1018.2 0.0
20/11:49am W 15 26 - - - - 9 Partly cloudy - 11.8 1018.1 0.0
20/11:30am W 13 19 - - - - 9 Partly cloudy - 11.8 1018.0 0.0
20/11:00am W 18 24 - - - - 10 Partly cloudy - 11.9 1017.6 0.0
20/10:31am W 16 28 - - - - 10 Partly cloudy - 11.5 1017.3 0.0
20/10:30am W 15 22 - - - - 10 Partly cloudy - 11.5 1017.4 0.0
20/10:00am WNW 11 18 - - - - 10 Cloudy - 11.0 1017.0 0.0
20/09:30am W 13 19 - - - - 10 Partly cloudy - 10.9 1016.9 0.0
20/09:00am WNW 10 15 - - - - 10 Cloudy - 10.5 1016.3 4.6
20/08:30am WNW 9 14 - - - - 10 Partly cloudy - 10.3 1016.1 4.6
20/08:29am WNW 9 14 - - - - 10 Partly cloudy - 10.2 1016.0 4.6
20/08:00am NW 7 11 - - - - 10 Partly cloudy - 9.9 1015.8 4.6
20/07:47am NW 7 10 - - - - 7 Partly cloudy - 9.6 1015.8 4.6
20/07:30am NW 9 13 - - - - 10 Partly cloudy - 9.7 1015.6 4.6
20/07:28am NW 9 13 - - - - 10 Partly cloudy - 9.6 1015.5 4.6
20/07:01am NW 10 12 - - - - 6 Partly cloudy - 9.2 1015.6 4.6
20/07:00am NW 10 12 - - - - 6 Partly cloudy - 9.2 1015.5 4.6
20/06:30am NW 10 14 - - - - 10 Partly cloudy - 9.5 1015.1 4.6
20/06:00am WNW 10 13 - - - - 10 Cloudy - 9.8 1014.9 4.6
20/05:30am WNW 11 15 - - - - 10 Partly cloudy - 9.4 1014.6 4.6
20/05:00am WNW 8 11 - - - - 10 Partly cloudy - 9.2 1014.4 4.6
20/04:30am NW 7 10 - - - - 10 Partly cloudy - 8.7 1014.3 4.6
20/04:00am W 11 16 - - - - 6 Partly cloudy - 9.1 1014.5 4.6
20/03:54am W 11 16 - - - - 5 Partly cloudy - 9.2 1014.4 4.6
20/03:30am WNW 12 16 - - - - 10 Cloudy - 9.1 1014.1 4.6
20/03:00am W 13 20 - - - - 10 Cloudy - 9.1 1014.1 4.6
20/02:42am WNW 13 18 - - - - 10 Partly cloudy - 8.8 1014.1 4.6
20/02:30am WNW 11 16 - - - - 4 Partly cloudy - 8.6 1014.3 4.6
20/02:20am WNW 10 15 - - - - 5 Partly cloudy - 8.8 1014.3 4.6
20/02:00am WNW 7 10 - - - - 9 Partly cloudy - 8.6 1014.2 4.6
20/01:30am WNW 8 11 - - - - 10 Partly cloudy - 8.8 1014.5 4.2
20/01:00am WNW 9 12 - - - - 10 Partly cloudy - 8.5 1014.5 4.2
20/12:30am WNW 4 6 - - - - 8 Partly cloudy - 7.3 1014.4 4.2
20/12:00am W 8 11 - - - - 10 Mostly cloudy - 7.5 1014.3 4.2
 
Date/Time
EDT
Wind Sea
Height
m
Swell Vis
km
Cloud Weather Temp
°C
Press
hPa
Rain since
9am
mm
Dir  Spd
kts
Gust
kts
Height
m
Period
s
Dir
19/11:30pm WNW 8 13 - - - - 10 Partly cloudy - 7.8 1014.1 4.2
19/11:00pm W 9 11 - - - - 9 Partly cloudy - 7.7 1014.1 4.2
19/10:30pm NW 7 10 - - - - 10 Partly cloudy - 7.9 1013.7 4.0
19/10:00pm W 8 11 - - - - 10 Partly cloudy - 7.8 1013.7 4.0
19/09:30pm WNW 8 11 - - - - 10 Partly cloudy - 7.8 1013.4 4.0
19/09:00pm WNW 10 24 - - - - 10 Cloudy - 8.4 1013.1 4.0
19/08:30pm WNW 10 16 - - - - 10 Partly cloudy - 8.2 1012.4 4.0
19/08:00pm NW 9 14 - - - - 10 Partly cloudy - 8.5 1012.0 4.0
19/07:30pm WNW 7 13 - - - - 10 Partly cloudy - 7.9 1011.2 4.0
19/07:00pm WNW 11 17 - - - - 10 Partly cloudy - 8.5 1010.8 4.0
19/06:30pm W 14 21 - - - - 10 Partly cloudy - 8.8 1010.7 4.0
19/06:05pm W 16 29 - - - - 9 Partly cloudy - 9.5 1010.3 3.4
19/06:00pm W 15 21 - - - - 10 Partly cloudy - 10.6 1009.9 3.2
19/05:56pm W 15 25 - - - - 10 Partly cloudy - 10.8 1009.7 3.2
19/05:30pm W 16 23 - - - - 10 Partly cloudy - 11.5 1009.6 3.2
19/05:16pm W 15 22 - - - - 10 Partly cloudy - 10.9 1009.5 3.2
19/05:00pm W 20 27 - - - - 5 Partly cloudy - 9.6 1009.5 3.2
19/04:59pm W 19 27 - - - - 5 Partly cloudy - 9.4 1009.6 3.2
19/04:39pm WSW 15 29 - - - - 9 Partly cloudy - 10.2 1009.2 2.8
19/04:30pm WSW 13 16 - - - - 10 Partly cloudy - 10.9 1009.2 2.8
19/04:00pm WSW 14 20 - - - - 10 Partly cloudy - 10.4 1009.2 2.6
19/03:39pm WSW 20 31 - - - - 10 Partly cloudy - 11.2 1008.8 2.6
19/03:30pm W 20 26 - - - - 10 Partly cloudy - 12.7 1008.3 2.6
19/03:00pm WSW 18 30 - - - - 10 Cloudy - 13.7 1008.3 2.6
19/02:34pm WSW 17 27 - - - - 10 Partly cloudy - 12.5 1008.4 2.6
19/02:30pm WSW 18 24 - - - - 10 Partly cloudy - 12.9 1008.4 2.6
19/02:01pm W 18 28 - - - - 10 Partly cloudy - 13.6 1008.1 2.6
19/02:00pm W 19 28 - - - - 10 - - 12.9 1008.1 2.6
19/01:58pm W 18 28 - - - - 10 - - 13.1 1008.1 2.6
19/01:37pm W 14 20 - - - - 10 Partly cloudy - 11.8 1008.2 2.6
19/01:30pm W 15 20 - - - - 10 Partly cloudy - 10.9 1008.3 2.6
19/01:20pm W 17 28 - - - - 5 Partly cloudy - 9.1 1008.4 2.4
19/01:08pm W 18 28 - - - - 10 Partly cloudy - 11.1 1008.1 2.0
19/01:00pm W 20 28 - - - - 10 Partly cloudy - 11.1 1008.1 2.0
19/12:42pm WSW 15 21 - - - - 10 Partly cloudy - 11.1 1008.2 2.0
19/12:32pm WSW 17 27 - - - - 5 Partly cloudy - 10.0 1008.3 2.0
19/12:30pm WSW 19 27 - - - - 4 Partly cloudy - 9.4 1008.3 2.0
19/12:21pm W 19 26 - - - - 5 Partly cloudy - 8.0 1008.6 1.4
19/12:20pm W 18 26 - - - - 8 Partly cloudy - 8.2 1008.7 1.4
19/12:00pm W 16 24 - - - - 10 Mostly clear Recent precip. 11.5 1008.0 0.8
19/11:42am W 15 20 - - - - 10 Partly cloudy - 10.4 1008.3 0.8
19/11:32am W 19 29 - - - - 5 Partly cloudy - 9.4 1008.5 0.8
19/11:30am W 20 29 - - - - 5 Partly cloudy - 8.5 1008.5 0.8
19/11:27am W 20 29 - - - - 5 Partly cloudy - 8.6 1008.5 0.6
19/11:24am W 16 28 - - - - 10 Partly cloudy - 9.8 1008.4 0.6
19/11:00am WNW 15 22 - - - - 10 Partly cloudy - 10.5 1007.8 0.4
19/10:30am WSW 14 21 - - - - 7 Partly cloudy - 9.9 1008.1 0.4
19/10:00am W 17 24 - - - - 10 Partly cloudy - 11.6 1007.8 0.0
19/09:30am WNW 14 19 - - - - 10 - - 10.6 1007.9 0.0
19/09:00am WNW 15 20 - - - - 10 - - 9.4 1007.7 4.4
19/08:30am WNW 11 15 - - - - 10 Partly cloudy - 8.6 1008.0 4.4
19/08:00am WNW 8 11 - - - - 10 - - 7.5 1007.7 4.4
19/07:30am W 5 6 - - - - 10 - - 5.8 1007.7 4.4
19/07:00am WNW 7 10 - - - - 10 - - 5.3 1007.4 4.4
19/06:30am W 8 9 - - - - 10 - - 4.7 1007.2 4.4
19/06:00am WSW 10 14 - - - - 10 Mostly cloudy - 5.0 1007.0 4.4
19/05:30am W 10 16 - - - - 10 Partly cloudy - 4.6 1007.2 4.4
19/05:00am SW 4 5 - - - - 10 - - 2.9 1007.0 4.4
19/04:30am SW 6 9 - - - - 10 Partly cloudy - 4.3 1007.2 4.4
19/04:00am SSW 7 9 - - - - 10 Partly cloudy - 3.5 1007.6 3.8
19/03:30am NW 1 3 - - - - 10 Partly cloudy - 3.2 1007.5 3.8
19/03:00am SW 6 8 - - - - 10 Mostly clear - 2.9 1007.8 3.8
19/02:30am WSW 5 7 - - - - 10 Partly cloudy - 3.0 1007.7 3.8
19/02:00am W 6 7 - - - - 10 Partly cloudy - 3.2 1008.1 3.8
19/01:30am W 7 8 - - - - 10 - - 3.3 1007.8 3.8
19/01:00am WSW 7 9 - - - - 10 Partly cloudy - 3.8 1007.8 3.8
19/12:30am WSW 10 13 - - - - 10 Partly cloudy - 5.2 1007.7 3.8
19/12:00am WSW 11 15 - - - - 10 - - 5.3 1007.8 3.8
 
Date/Time
EDT
Wind Sea
Height
m
Swell Vis
km
Cloud Weather Temp
°C
Press
hPa
Rain since
9am
mm
Dir  Spd
kts
Gust
kts
Height
m
Period
s
Dir
18/11:30pm W 11 14 - - - - 10 - - 5.4 1007.5 3.8
18/11:00pm W 12 17 - - - - 10 Partly cloudy - 5.8 1007.4 3.8
18/10:38pm W 17 27 - - - - 10 Partly cloudy - 7.0 1007.4 3.8
18/10:30pm W 13 21 - - - - 10 Partly cloudy - 7.1 1007.4 3.8
18/10:00pm W 15 22 - - - - 10 - - 7.2 1007.1 3.8
18/09:30pm W 18 24 - - - - 8 Partly cloudy - 7.9 1007.0 3.8
18/09:00pm W 14 20 - - - - 10 Mostly cloudy - 8.4 1006.4 3.6
18/08:56pm W 15 25 - - - - 10 Partly cloudy - 8.4 1006.3 3.6
18/08:43pm W 16 24 - - - - 10 Partly cloudy - 8.8 1006.2 3.6
18/08:30pm W 11 14 - - - - 10 Partly cloudy - 8.7 1005.7 3.6
18/08:00pm W 12 16 - - - - 10 Partly cloudy - 8.8 1005.3 3.6
18/07:30pm W 17 25 - - - - 10 Partly cloudy - 9.3 1004.9 3.6
18/07:12pm W 19 29 - - - - 10 Partly cloudy - 9.5 1004.7 3.6
18/07:00pm W 18 26 - - - - 10 Partly cloudy - 10.0 1004.1 3.6
18/06:30pm W 16 27 - - - - 10 Partly cloudy - 11.0 1003.7 3.6
18/06:00pm W 19 31 - - - - 9 Cloudy Recent precip. 11.2 1003.2 3.6
18/05:52pm W 17 27 - - - - 10 Partly cloudy - 11.1 1003.1 3.6
18/05:30pm W 17 23 - - - - 10 Partly cloudy - 11.3 1003.1 3.6
18/05:24pm W 14 23 - - - - 10 Partly cloudy - 11.4 1003.0 3.6
18/05:05pm W 20 30 - - - - 5 Partly cloudy - 11.2 1002.8 3.6
18/05:04pm W 20 30 - - - - 7 Partly cloudy - 11.2 1003.2 3.6
18/05:00pm WNW 21 30 - - - - 10 Partly cloudy - 11.4 1003.1 3.4
18/04:55pm WNW 20 30 - - - - 10 Partly cloudy - 11.6 1002.9 3.4
18/04:30pm WNW 19 28 - - - - 9 Partly cloudy - 11.0 1002.8 3.4
18/04:17pm W 20 29 - - - - 8 Partly cloudy - 10.6 1003.0 3.0
18/04:09pm W 19 29 - - - - 6 Partly cloudy - 10.8 1003.0 3.0
18/04:00pm W 21 29 - - - - 4 - - 10.9 1003.1 2.8
18/03:55pm W 22 32 - - - - 4 Partly cloudy - 11.0 1003.0 2.4
18/03:49pm WNW 20 32 - - - - 7 Partly cloudy - 11.3 1002.8 2.2
18/03:40pm WNW 19 31 - - - - 5 Partly cloudy - 11.7 1002.9 2.2
18/03:30pm NW 23 35 - - - - 4 Partly cloudy - 11.5 1002.8 2.0
18/03:20pm NW 21 33 - - - - 3 Partly cloudy - 11.6 1002.8 1.6
18/03:10pm NW 21 31 - - - - 4 Partly cloudy - 12.1 1003.0 1.4
18/03:00pm NW 22 31 - - - - 4 Cloudy - 12.1 1003.2 0.8
18/02:51pm NW 23 38 - - - - 5 Partly cloudy - 12.7 1003.3 0.8
18/02:31pm NW 21 31 - - - - 7 Cloudy - 13.0 1003.8 0.8
18/02:30pm NW 21 30 - - - - 7 Cloudy - 12.9 1003.8 0.8
18/02:00pm NW 22 32 - - - - 10 Partly cloudy - 12.9 1004.5 0.8
18/01:56pm NW 21 32 - - - - 10 Partly cloudy - 13.2 1004.7 0.8
18/01:30pm NW 19 29 - - - - 4 Partly cloudy - 12.1 1005.2 0.6
18/01:29pm NW 19 29 - - - - 4 Partly cloudy - 12.2 1005.2 0.6
18/01:25pm NW 20 29 - - - - 5 Partly cloudy - 12.2 1005.2 0.6
18/01:00pm NNW 23 33 - - - - 10 Partly cloudy - 12.3 1005.3 0.6
18/12:30pm NW 22 33 - - - - 10 Partly cloudy - 12.4 1006.0 0.6
18/12:26pm NW 22 33 - - - - 10 Partly cloudy - 12.5 1006.1 0.6
18/12:23pm NW 20 33 - - - - 10 Partly cloudy - 12.5 1006.1 0.6
18/12:10pm NW 15 27 - - - - 10 Partly cloudy - 13.0 1006.4 0.6
18/12:08pm NW 15 21 - - - - 10 Partly cloudy - 13.4 1006.5 0.6
18/12:00pm NW 17 24 - - - - 8 Cloudy Recent precip. 12.5 1006.7 0.6
18/11:51am NW 19 30 - - - - 2 Partly cloudy - 11.1 1006.9 0.6
18/11:30am NW 21 32 - - - - 5 Partly cloudy - 12.0 1007.0 0.0
18/11:27am NW 19 32 - - - - 7 Partly cloudy - 12.5 1007.1 0.0
18/11:22am NW 17 26 - - - - 10 Partly cloudy - 13.2 1007.2 0.0
18/11:10am NW 16 22 - - - - 5 Partly cloudy - 12.5 1007.4 0.0
18/11:01am NW 18 28 - - - - 10 Partly cloudy - 12.5 1007.6 0.0
18/11:00am NW 19 28 - - - - 10 Partly cloudy - 12.4 1007.6 0.0
18/10:34am NW 19 29 - - - - 10 Partly cloudy - 12.3 1007.8 0.0
18/10:30am NW 19 27 - - - - 10 Partly cloudy - 12.5 1007.9 0.0
18/10:00am NW 16 23 - - - - 10 Partly cloudy - 12.7 1008.1 0.0
18/09:50am NW 15 26 - - - - 10 Partly cloudy - 12.5 1008.2 0.0
18/09:30am NW 10 15 - - - - 10 Partly cloudy - 11.9 1008.6 0.0
18/09:03am WNW 9 13 - - - - 10 Partly cloudy - 10.6 1009.0 0.0
18/09:00am WNW 8 13 - - - - 10 Cloudy Recent precip. 10.6 1009.0 0.2
18/08:35am WNW 10 21 - - - - 5 Partly cloudy - 10.4 1009.2 0.2
18/08:30am NW 8 13 - - - - 10 Partly cloudy - 10.8 1009.3 0.0
18/08:00am W 11 14 - - - - 10 Partly cloudy - 11.1 1009.3 0.0
18/07:30am NW 6 8 - - - - 10 Cloudy - 10.5 1009.5 0.0
18/07:00am W 8 14 - - - - 10 Partly cloudy - 9.9 1009.5 0.0
18/06:30am NW 7 10 - - - - 10 Cloudy - 9.8 1009.5 0.0
18/06:00am WNW 10 19 - - - - 10 Cloudy - 9.9 1009.5 0.0
18/05:30am WNW 7 8 - - - - 10 Cloudy - 9.9 1009.5 0.0
18/05:00am W 5 8 - - - - 10 Cloudy - 9.8 1009.5 0.0
18/04:30am WNW 7 9 - - - - 10 Cloudy - 9.8 1009.9 0.0
18/04:00am W 9 12 - - - - 10 Cloudy - 9.7 1010.1 0.0
18/03:30am W 11 14 - - - - 10 Cloudy - 9.7 1010.3 0.0
18/03:00am W 7 10 - - - - 10 Mostly cloudy - 8.7 1010.3 0.0
18/02:30am W 5 6 - - - - 10 Cloudy - 7.2 1010.5 0.0
18/02:00am SW 3 5 - - - - 10 Partly cloudy - 7.0 1010.5 0.0
18/01:30am W 5 6 - - - - 10 Partly cloudy - 7.1 1011.0 0.0
18/01:00am W 6 8 - - - - 10 - - 5.9 1011.2 0.0
18/12:30am W 5 7 - - - - 10 - - 6.9 1011.5 0.0
18/12:00am W 7 9 - - - - 10 - - 7.5 1011.6 0.0
 
Date/Time
EDT
Wind Sea
Height
m
Swell Vis
km
Cloud Weather Temp
°C
Press
hPa
Rain since
9am
mm
Dir  Spd
kts
Gust
kts
Height
m
Period
s
Dir
17/11:30pm W 8 10 - - - - 10 - - 8.5 1011.6 0.0
17/11:00pm W 8 10 - - - - 10 - - 8.8 1011.2 0.0
17/10:30pm W 9 11 - - - - 10 - - 9.3 1010.9 0.0
17/10:00pm W 9 11 - - - - 10 - - 9.6 1010.6 0.0
17/09:30pm WNW 9 13 - - - - 10 - - 10.5 1010.3 0.0
17/09:00pm WSW 11 15 - - - - 10 - - 11.3 1009.5 0.0
17/08:30pm WSW 10 13 - - - - 10 - - 11.7 1009.0 0.0
17/08:00pm WSW 12 15 - - - - 10 - - 12.6 1008.3 0.0
17/07:30pm WSW 14 17 - - - - 10 - - 13.8 1007.6 0.0
17/07:00pm WSW 11 16 - - - - 10 - - 15.0 1006.9 0.0
17/06:30pm W 15 19 - - - - 10 - - 16.1 1006.3 0.0
17/06:00pm WSW 16 21 - - - - 10 Mostly clear - 16.7 1005.6 0.0
17/05:30pm WSW 9 12 - - - - 10 - - 17.0 1005.0 0.0
17/05:00pm NW 11 15 - - - - 10 Partly cloudy - 14.8 1004.9 0.0
17/04:30pm NNW 14 18 - - - - 10 - - 13.6 1004.9 0.0
17/04:00pm NW 14 17 - - - - 10 Partly cloudy - 14.1 1004.9 0.0
17/03:30pm NNW 12 16 - - - - 10 Partly cloudy - 14.1 1005.0 0.0
17/03:00pm NNE 9 12 - - - - 10 - - 13.6 1005.0 0.0

Other formats

Comma delimited format used in spreadsheet applications
http://www.bom.gov.au/fwo/IDV60701/IDV60701.95957.axf

JavaScript Object Notation format (JSON) in row-major order
http://www.bom.gov.au/fwo/IDV60701/IDV60701.95957.json

Data quality

Most of these data are generated automatically and are frequently updated. Quality checks on data are not normally performed. It is possible for incorrect values to appear. Refer to information at About Latest Weather Observations and please check the disclaimer before using these data.